sensor_id;sensor_type;location;lat;lon;timestamp;P1;durP1;ratioP1;P2;durP2;ratioP2
69703;SDS011;56967;43.538;-5.646;2022-07-05T00:00:15;14.82;;;2.50;;
69703;SDS011;56967;43.538;-5.646;2022-07-05T00:02:40;10.88;;;2.30;;
69703;SDS011;56967;43.538;-5.646;2022-07-05T00:05:06;9.32;;;2.28;;
69703;SDS011;56967;43.538;-5.646;2022-07-05T00:07:31;10.63;;;2.47;;
69703;SDS011;56967;43.538;-5.646;2022-07-05T00:09:57;12.63;;;2.50;;
69703;SDS011;56967;43.538;-5.646;2022-07-05T00:12:29;14.50;;;2.45;;
69703;SDS011;56967;43.538;-5.646;2022-07-05T00:14:57;12.90;;;2.45;;
69703;SDS011;56967;43.538;-5.646;2022-07-05T00:17:22;14.00;;;2.17;;
69703;SDS011;56967;43.538;-5.646;2022-07-05T00:19:47;11.23;;;2.35;;
69703;SDS011;56967;43.538;-5.646;2022-07-05T00:22:13;15.18;;;2.53;;
69703;SDS011;56967;43.538;-5.646;2022-07-05T00:24:38;11.07;;;2.22;;
69703;SDS011;56967;43.538;-5.646;2022-07-05T00:27:04;13.73;;;2.30;;
69703;SDS011;56967;43.538;-5.646;2022-07-05T00:29:29;13.30;;;2.28;;
69703;SDS011;56967;43.538;-5.646;2022-07-05T00:31:55;12.15;;;2.30;;
69703;SDS011;56967;43.538;-5.646;2022-07-05T00:34:20;8.40;;;2.20;;
69703;SDS011;56967;43.538;-5.646;2022-07-05T00:36:46;14.75;;;2.47;;
69703;SDS011;56967;43.538;-5.646;2022-07-05T00:39:11;9.45;;;2.30;;
69703;SDS011;56967;43.538;-5.646;2022-07-05T00:41:37;11.13;;;2.13;;
69703;SDS011;56967;43.538;-5.646;2022-07-05T00:44:03;8.73;;;1.92;;
69703;SDS011;56967;43.538;-5.646;2022-07-05T00:46:30;9.48;;;2.05;;
69703;SDS011;56967;43.538;-5.646;2022-07-05T00:48:57;9.80;;;1.90;;
69703;SDS011;56967;43.538;-5.646;2022-07-05T00:51:22;10.80;;;2.38;;
69703;SDS011;56967;43.538;-5.646;2022-07-05T00:53:48;11.13;;;2.30;;
69703;SDS011;56967;43.538;-5.646;2022-07-05T00:56:14;8.05;;;2.00;;
69703;SDS011;56967;43.538;-5.646;2022-07-05T00:58:39;10.07;;;2.00;;
69703;SDS011;56967;43.538;-5.646;2022-07-05T01:01:06;8.55;;;1.70;;
69703;SDS011;56967;43.538;-5.646;2022-07-05T01:03:32;11.95;;;2.08;;
69703;SDS011;56967;43.538;-5.646;2022-07-05T01:05:58;11.52;;;2.20;;
69703;SDS011;56967;43.538;-5.646;2022-07-05T01:08:23;6.95;;;1.63;;
69703;SDS011;56967;43.538;-5.646;2022-07-05T01:10:49;10.45;;;2.05;;
69703;SDS011;56967;43.538;-5.646;2022-07-05T01:13:14;10.00;;;2.10;;
69703;SDS011;56967;43.538;-5.646;2022-07-05T01:15:40;9.68;;;2.10;;
69703;SDS011;56967;43.538;-5.646;2022-07-05T01:18:06;11.68;;;2.28;;
69703;SDS011;56967;43.538;-5.646;2022-07-05T01:20:31;10.48;;;2.33;;
69703;SDS011;56967;43.538;-5.646;2022-07-05T01:22:57;12.00;;;1.88;;
69703;SDS011;56967;43.538;-5.646;2022-07-05T01:25:25;10.05;;;1.90;;
69703;SDS011;56967;43.538;-5.646;2022-07-05T01:27:51;10.73;;;2.28;;
69703;SDS011;56967;43.538;-5.646;2022-07-05T01:30:17;5.93;;;1.60;;
69703;SDS011;56967;43.538;-5.646;2022-07-05T01:32:42;7.65;;;1.80;;
69703;SDS011;56967;43.538;-5.646;2022-07-05T01:35:09;6.65;;;1.60;;
69703;SDS011;56967;43.538;-5.646;2022-07-05T01:37:35;5.22;;;1.70;;
69703;SDS011;56967;43.538;-5.646;2022-07-05T01:40:03;4.88;;;1.55;;
69703;SDS011;56967;43.538;-5.646;2022-07-05T01:42:29;5.43;;;1.70;;
69703;SDS011;56967;43.538;-5.646;2022-07-05T01:44:54;7.40;;;1.70;;
69703;SDS011;56967;43.538;-5.646;2022-07-05T01:47:20;6.20;;;1.83;;
69703;SDS011;56967;43.538;-5.646;2022-07-05T01:49:46;7.22;;;1.98;;
69703;SDS011;56967;43.538;-5.646;2022-07-05T01:52:13;7.60;;;1.67;;
69703;SDS011;56967;43.538;-5.646;2022-07-05T01:54:39;5.47;;;1.60;;
69703;SDS011;56967;43.538;-5.646;2022-07-05T01:57:05;3.90;;;1.80;;
69703;SDS011;56967;43.538;-5.646;2022-07-05T01:59:33;6.05;;;1.77;;
69703;SDS011;56967;43.538;-5.646;2022-07-05T02:01:59;6.60;;;1.70;;
69703;SDS011;56967;43.538;-5.646;2022-07-05T02:04:24;6.28;;;1.60;;
69703;SDS011;56967;43.538;-5.646;2022-07-05T02:06:50;5.55;;;1.92;;
69703;SDS011;56967;43.538;-5.646;2022-07-05T02:09:15;7.97;;;1.85;;
69703;SDS011;56967;43.538;-5.646;2022-07-05T02:11:41;7.30;;;1.70;;
69703;SDS011;56967;43.538;-5.646;2022-07-05T02:14:06;3.90;;;1.58;;
69703;SDS011;56967;43.538;-5.646;2022-07-05T02:16:32;7.97;;;2.08;;
69703;SDS011;56967;43.538;-5.646;2022-07-05T02:18:57;3.53;;;1.65;;
69703;SDS011;56967;43.538;-5.646;2022-07-05T02:21:22;6.95;;;1.63;;
69703;SDS011;56967;43.538;-5.646;2022-07-05T02:23:48;6.03;;;1.58;;
69703;SDS011;56967;43.538;-5.646;2022-07-05T02:26:13;8.98;;;1.80;;
69703;SDS011;56967;43.538;-5.646;2022-07-05T02:28:39;6.15;;;1.80;;
69703;SDS011;56967;43.538;-5.646;2022-07-05T02:31:04;7.15;;;2.00;;
69703;SDS011;56967;43.538;-5.646;2022-07-05T02:33:30;6.50;;;1.92;;
69703;SDS011;56967;43.538;-5.646;2022-07-05T02:35:55;5.93;;;1.67;;
69703;SDS011;56967;43.538;-5.646;2022-07-05T02:38:20;5.65;;;1.80;;
69703;SDS011;56967;43.538;-5.646;2022-07-05T02:40:46;10.20;;;2.10;;
69703;SDS011;56967;43.538;-5.646;2022-07-05T02:43:11;5.15;;;1.90;;
69703;SDS011;56967;43.538;-5.646;2022-07-05T02:45:37;5.43;;;1.58;;
69703;SDS011;56967;43.538;-5.646;2022-07-05T02:48:02;6.28;;;1.73;;
69703;SDS011;56967;43.538;-5.646;2022-07-05T02:50:28;6.70;;;1.95;;
69703;SDS011;56967;43.538;-5.646;2022-07-05T02:52:53;4.45;;;1.50;;
69703;SDS011;56967;43.538;-5.646;2022-07-05T02:55:18;4.78;;;1.70;;
69703;SDS011;56967;43.538;-5.646;2022-07-05T02:57:44;6.40;;;2.03;;
69703;SDS011;56967;43.538;-5.646;2022-07-05T03:00:09;6.22;;;1.67;;
69703;SDS011;56967;43.538;-5.646;2022-07-05T03:02:35;5.53;;;1.75;;
69703;SDS011;56967;43.538;-5.646;2022-07-05T03:05:00;5.82;;;1.80;;
69703;SDS011;56967;43.538;-5.646;2022-07-05T03:07:25;7.07;;;1.83;;
69703;SDS011;56967;43.538;-5.646;2022-07-05T03:09:51;5.78;;;1.45;;
69703;SDS011;56967;43.538;-5.646;2022-07-05T03:12:16;5.32;;;1.60;;
69703;SDS011;56967;43.538;-5.646;2022-07-05T03:14:41;6.32;;;1.98;;
69703;SDS011;56967;43.538;-5.646;2022-07-05T03:17:07;5.13;;;1.75;;
69703;SDS011;56967;43.538;-5.646;2022-07-05T03:19:32;9.23;;;1.85;;
69703;SDS011;56967;43.538;-5.646;2022-07-05T03:21:58;5.78;;;1.77;;
69703;SDS011;56967;43.538;-5.646;2022-07-05T03:24:23;3.67;;;1.40;;
69703;SDS011;56967;43.538;-5.646;2022-07-05T03:26:48;5.60;;;1.73;;
69703;SDS011;56967;43.538;-5.646;2022-07-05T03:29:14;3.85;;;1.67;;
69703;SDS011;56967;43.538;-5.646;2022-07-05T03:31:39;3.60;;;1.60;;
69703;SDS011;56967;43.538;-5.646;2022-07-05T03:34:04;3.92;;;1.77;;
69703;SDS011;56967;43.538;-5.646;2022-07-05T03:36:29;6.15;;;1.73;;
69703;SDS011;56967;43.538;-5.646;2022-07-05T03:38:55;8.38;;;2.15;;
69703;SDS011;56967;43.538;-5.646;2022-07-05T03:41:21;5.75;;;1.70;;
69703;SDS011;56967;43.538;-5.646;2022-07-05T03:43:46;5.50;;;1.45;;
69703;SDS011;56967;43.538;-5.646;2022-07-05T03:46:11;4.15;;;1.88;;
69703;SDS011;56967;43.538;-5.646;2022-07-05T03:48:37;6.28;;;2.00;;
69703;SDS011;56967;43.538;-5.646;2022-07-05T03:51:02;6.43;;;2.20;;
69703;SDS011;56967;43.538;-5.646;2022-07-05T03:53:27;4.38;;;1.75;;
69703;SDS011;56967;43.538;-5.646;2022-07-05T03:55:53;4.72;;;1.80;;
69703;SDS011;56967;43.538;-5.646;2022-07-05T03:58:18;4.20;;;1.70;;
69703;SDS011;56967;43.538;-5.646;2022-07-05T04:00:44;4.68;;;1.90;;
69703;SDS011;56967;43.538;-5.646;2022-07-05T04:03:09;5.22;;;1.92;;
69703;SDS011;56967;43.538;-5.646;2022-07-05T04:05:34;4.07;;;1.80;;
69703;SDS011;56967;43.538;-5.646;2022-07-05T04:08:00;6.07;;;1.92;;
69703;SDS011;56967;43.538;-5.646;2022-07-05T04:10:25;6.22;;;2.25;;
69703;SDS011;56967;43.538;-5.646;2022-07-05T04:12:50;4.93;;;1.67;;
69703;SDS011;56967;43.538;-5.646;2022-07-05T04:15:16;4.05;;;1.73;;
69703;SDS011;56967;43.538;-5.646;2022-07-05T04:17:52;6.45;;;1.90;;
69703;SDS011;56967;43.538;-5.646;2022-07-05T04:20:18;7.57;;;1.80;;
69703;SDS011;56967;43.538;-5.646;2022-07-05T04:22:43;5.93;;;1.90;;
69703;SDS011;56967;43.538;-5.646;2022-07-05T04:25:09;5.60;;;1.80;;
69703;SDS011;56967;43.538;-5.646;2022-07-05T04:30:09;6.70;;;1.95;;
69703;SDS011;56967;43.538;-5.646;2022-07-05T04:32:35;7.53;;;2.10;;
69703;SDS011;56967;43.538;-5.646;2022-07-05T04:35:00;6.82;;;2.05;;
69703;SDS011;56967;43.538;-5.646;2022-07-05T04:37:26;6.68;;;2.03;;
69703;SDS011;56967;43.538;-5.646;2022-07-05T04:39:52;6.35;;;2.00;;
69703;SDS011;56967;43.538;-5.646;2022-07-05T04:42:17;6.22;;;1.73;;
69703;SDS011;56967;43.538;-5.646;2022-07-05T04:44:42;5.20;;;1.63;;
69703;SDS011;56967;43.538;-5.646;2022-07-05T04:47:08;10.80;;;2.53;;
69703;SDS011;56967;43.538;-5.646;2022-07-05T04:49:33;10.55;;;2.10;;
69703;SDS011;56967;43.538;-5.646;2022-07-05T04:51:59;7.68;;;2.22;;
69703;SDS011;56967;43.538;-5.646;2022-07-05T04:54:24;11.85;;;2.17;;
69703;SDS011;56967;43.538;-5.646;2022-07-05T04:56:49;9.25;;;1.92;;
69703;SDS011;56967;43.538;-5.646;2022-07-05T04:59:15;7.13;;;1.70;;
69703;SDS011;56967;43.538;-5.646;2022-07-05T05:01:40;3.83;;;1.70;;
69703;SDS011;56967;43.538;-5.646;2022-07-05T05:04:05;5.07;;;1.55;;
69703;SDS011;56967;43.538;-5.646;2022-07-05T05:06:31;5.85;;;1.70;;
69703;SDS011;56967;43.538;-5.646;2022-07-05T05:08:56;5.68;;;1.58;;
69703;SDS011;56967;43.538;-5.646;2022-07-05T05:11:21;4.97;;;1.85;;
69703;SDS011;56967;43.538;-5.646;2022-07-05T05:13:47;2.58;;;1.40;;
69703;SDS011;56967;43.538;-5.646;2022-07-05T05:16:12;7.80;;;2.15;;
69703;SDS011;56967;43.538;-5.646;2022-07-05T05:18:38;3.30;;;1.30;;
69703;SDS011;56967;43.538;-5.646;2022-07-05T05:21:03;5.13;;;1.80;;
69703;SDS011;56967;43.538;-5.646;2022-07-05T05:23:29;3.05;;;1.60;;
69703;SDS011;56967;43.538;-5.646;2022-07-05T05:25:54;5.20;;;1.60;;
69703;SDS011;56967;43.538;-5.646;2022-07-05T05:28:19;4.65;;;1.75;;
69703;SDS011;56967;43.538;-5.646;2022-07-05T05:30:45;3.83;;;1.65;;
69703;SDS011;56967;43.538;-5.646;2022-07-05T05:33:10;3.28;;;1.40;;
69703;SDS011;56967;43.538;-5.646;2022-07-05T05:35:36;4.25;;;1.40;;
69703;SDS011;56967;43.538;-5.646;2022-07-05T05:38:01;3.97;;;1.67;;
69703;SDS011;56967;43.538;-5.646;2022-07-05T05:40:26;5.38;;;1.40;;
69703;SDS011;56967;43.538;-5.646;2022-07-05T05:42:52;3.72;;;1.60;;
69703;SDS011;56967;43.538;-5.646;2022-07-05T05:45:18;5.28;;;1.77;;
69703;SDS011;56967;43.538;-5.646;2022-07-05T05:47:49;4.35;;;1.60;;
69703;SDS011;56967;43.538;-5.646;2022-07-05T05:50:17;3.50;;;1.50;;
69703;SDS011;56967;43.538;-5.646;2022-07-05T05:52:43;4.53;;;1.58;;
69703;SDS011;56967;43.538;-5.646;2022-07-05T05:55:11;3.70;;;1.63;;
69703;SDS011;56967;43.538;-5.646;2022-07-05T05:57:37;3.83;;;1.60;;
69703;SDS011;56967;43.538;-5.646;2022-07-05T06:00:04;3.80;;;1.70;;
69703;SDS011;56967;43.538;-5.646;2022-07-05T06:02:29;3.42;;;1.23;;
69703;SDS011;56967;43.538;-5.646;2022-07-05T06:04:55;3.78;;;1.75;;
69703;SDS011;56967;43.538;-5.646;2022-07-05T06:07:20;2.97;;;1.60;;
69703;SDS011;56967;43.538;-5.646;2022-07-05T06:09:45;4.05;;;1.92;;
69703;SDS011;56967;43.538;-5.646;2022-07-05T06:12:11;4.07;;;1.48;;
69703;SDS011;56967;43.538;-5.646;2022-07-05T06:14:36;3.95;;;1.42;;
69703;SDS011;56967;43.538;-5.646;2022-07-05T06:17:01;6.83;;;1.53;;
69703;SDS011;56967;43.538;-5.646;2022-07-05T06:19:27;3.85;;;1.77;;
69703;SDS011;56967;43.538;-5.646;2022-07-05T06:21:52;4.43;;;1.70;;
69703;SDS011;56967;43.538;-5.646;2022-07-05T06:24:17;4.22;;;1.65;;
69703;SDS011;56967;43.538;-5.646;2022-07-05T06:26:43;3.08;;;1.70;;
69703;SDS011;56967;43.538;-5.646;2022-07-05T06:29:08;4.85;;;1.42;;
69703;SDS011;56967;43.538;-5.646;2022-07-05T06:31:33;4.15;;;1.85;;
69703;SDS011;56967;43.538;-5.646;2022-07-05T06:33:59;8.50;;;1.40;;
69703;SDS011;56967;43.538;-5.646;2022-07-05T06:36:24;2.83;;;1.25;;
69703;SDS011;56967;43.538;-5.646;2022-07-05T06:38:49;3.10;;;1.60;;
69703;SDS011;56967;43.538;-5.646;2022-07-05T06:41:15;4.25;;;1.60;;
69703;SDS011;56967;43.538;-5.646;2022-07-05T06:43:40;2.97;;;1.50;;
69703;SDS011;56967;43.538;-5.646;2022-07-05T06:46:05;4.60;;;1.60;;
69703;SDS011;56967;43.538;-5.646;2022-07-05T06:48:31;2.88;;;1.60;;
69703;SDS011;56967;43.538;-5.646;2022-07-05T06:50:56;4.30;;;1.63;;
69703;SDS011;56967;43.538;-5.646;2022-07-05T06:53:21;4.82;;;1.83;;
69703;SDS011;56967;43.538;-5.646;2022-07-05T06:55:47;4.82;;;1.65;;
69703;SDS011;56967;43.538;-5.646;2022-07-05T06:58:12;4.35;;;1.58;;
69703;SDS011;56967;43.538;-5.646;2022-07-05T07:00:41;3.03;;;1.20;;
69703;SDS011;56967;43.538;-5.646;2022-07-05T07:03:06;4.15;;;1.50;;
69703;SDS011;56967;43.538;-5.646;2022-07-05T07:05:32;3.55;;;1.55;;
69703;SDS011;56967;43.538;-5.646;2022-07-05T07:07:57;5.30;;;1.75;;
69703;SDS011;56967;43.538;-5.646;2022-07-05T07:10:41;4.38;;;1.60;;
69703;SDS011;56967;43.538;-5.646;2022-07-05T07:13:06;5.70;;;1.50;;
69703;SDS011;56967;43.538;-5.646;2022-07-05T07:15:32;2.92;;;1.50;;
69703;SDS011;56967;43.538;-5.646;2022-07-05T07:18:03;5.55;;;1.60;;
69703;SDS011;56967;43.538;-5.646;2022-07-05T07:20:28;3.75;;;1.30;;
69703;SDS011;56967;43.538;-5.646;2022-07-05T07:22:53;4.20;;;1.60;;
69703;SDS011;56967;43.538;-5.646;2022-07-05T07:25:19;4.60;;;2.10;;
69703;SDS011;56967;43.538;-5.646;2022-07-05T07:27:51;3.75;;;1.60;;
69703;SDS011;56967;43.538;-5.646;2022-07-05T07:30:18;3.13;;;1.40;;
69703;SDS011;56967;43.538;-5.646;2022-07-05T07:32:44;3.28;;;1.30;;
69703;SDS011;56967;43.538;-5.646;2022-07-05T07:35:09;3.28;;;1.38;;
69703;SDS011;56967;43.538;-5.646;2022-07-05T07:37:35;2.42;;;1.05;;
69703;SDS011;56967;43.538;-5.646;2022-07-05T07:40:00;2.55;;;1.08;;
69703;SDS011;56967;43.538;-5.646;2022-07-05T07:42:26;2.22;;;1.40;;
69703;SDS011;56967;43.538;-5.646;2022-07-05T07:44:52;2.58;;;1.30;;
69703;SDS011;56967;43.538;-5.646;2022-07-05T07:47:17;2.65;;;1.40;;
69703;SDS011;56967;43.538;-5.646;2022-07-05T07:49:43;3.13;;;1.50;;
69703;SDS011;56967;43.538;-5.646;2022-07-05T07:52:08;3.65;;;1.20;;
69703;SDS011;56967;43.538;-5.646;2022-07-05T07:54:33;1.98;;;1.10;;
69703;SDS011;56967;43.538;-5.646;2022-07-05T07:56:59;2.38;;;1.33;;
69703;SDS011;56967;43.538;-5.646;2022-07-05T07:59:30;2.92;;;1.40;;
69703;SDS011;56967;43.538;-5.646;2022-07-05T08:01:55;3.13;;;1.50;;
69703;SDS011;56967;43.538;-5.646;2022-07-05T08:04:21;2.92;;;1.35;;
69703;SDS011;56967;43.538;-5.646;2022-07-05T08:06:46;2.38;;;1.20;;
69703;SDS011;56967;43.538;-5.646;2022-07-05T08:09:12;4.18;;;1.50;;
69703;SDS011;56967;43.538;-5.646;2022-07-05T08:11:38;3.95;;;1.77;;
69703;SDS011;56967;43.538;-5.646;2022-07-05T08:14:03;3.53;;;1.30;;
69703;SDS011;56967;43.538;-5.646;2022-07-05T08:16:29;3.80;;;1.33;;
69703;SDS011;56967;43.538;-5.646;2022-07-05T08:18:54;4.13;;;1.40;;
69703;SDS011;56967;43.538;-5.646;2022-07-05T08:21:38;6.72;;;1.40;;
69703;SDS011;56967;43.538;-5.646;2022-07-05T08:24:04;5.68;;;1.50;;
69703;SDS011;56967;43.538;-5.646;2022-07-05T08:26:31;4.03;;;1.60;;
69703;SDS011;56967;43.538;-5.646;2022-07-05T08:28:57;2.88;;;1.30;;
69703;SDS011;56967;43.538;-5.646;2022-07-05T08:31:24;6.93;;;1.60;;
69703;SDS011;56967;43.538;-5.646;2022-07-05T08:33:50;5.78;;;1.60;;
69703;SDS011;56967;43.538;-5.646;2022-07-05T08:36:15;7.90;;;1.30;;
69703;SDS011;56967;43.538;-5.646;2022-07-05T08:38:40;4.43;;;1.10;;
69703;SDS011;56967;43.538;-5.646;2022-07-05T08:41:07;4.18;;;1.17;;
69703;SDS011;56967;43.538;-5.646;2022-07-05T08:43:33;5.65;;;1.40;;
69703;SDS011;56967;43.538;-5.646;2022-07-05T08:46:00;4.30;;;1.40;;
69703;SDS011;56967;43.538;-5.646;2022-07-05T08:48:25;7.28;;;1.65;;
69703;SDS011;56967;43.538;-5.646;2022-07-05T08:50:52;9.60;;;1.90;;
69703;SDS011;56967;43.538;-5.646;2022-07-05T08:53:19;5.45;;;1.45;;
69703;SDS011;56967;43.538;-5.646;2022-07-05T08:55:45;8.23;;;1.88;;
69703;SDS011;56967;43.538;-5.646;2022-07-05T08:58:10;13.10;;;1.83;;
69703;SDS011;56967;43.538;-5.646;2022-07-05T09:00:36;7.55;;;1.80;;
69703;SDS011;56967;43.538;-5.646;2022-07-05T09:03:02;11.02;;;2.15;;
69703;SDS011;56967;43.538;-5.646;2022-07-05T09:05:28;6.68;;;1.67;;
69703;SDS011;56967;43.538;-5.646;2022-07-05T09:07:58;5.80;;;1.65;;
69703;SDS011;56967;43.538;-5.646;2022-07-05T09:10:28;4.85;;;1.42;;
69703;SDS011;56967;43.538;-5.646;2022-07-05T09:12:54;6.88;;;1.60;;
69703;SDS011;56967;43.538;-5.646;2022-07-05T09:15:19;5.57;;;1.42;;
69703;SDS011;56967;43.538;-5.646;2022-07-05T09:17:45;8.20;;;1.58;;
69703;SDS011;56967;43.538;-5.646;2022-07-05T09:20:12;9.18;;;1.83;;
69703;SDS011;56967;43.538;-5.646;2022-07-05T09:28:06;7.47;;;1.40;;
69703;SDS011;56967;43.538;-5.646;2022-07-05T09:30:35;8.32;;;1.38;;
69703;SDS011;56967;43.538;-5.646;2022-07-05T09:33:10;8.48;;;1.65;;
69703;SDS011;56967;43.538;-5.646;2022-07-05T09:35:39;12.02;;;1.77;;
69703;SDS011;56967;43.538;-5.646;2022-07-05T09:38:05;6.45;;;1.83;;
69703;SDS011;56967;43.538;-5.646;2022-07-05T09:40:44;16.35;;;1.90;;
69703;SDS011;56967;43.538;-5.646;2022-07-05T09:43:11;9.38;;;1.73;;
69703;SDS011;56967;43.538;-5.646;2022-07-05T09:45:37;10.40;;;1.73;;
69703;SDS011;56967;43.538;-5.646;2022-07-05T09:48:03;11.98;;;1.67;;
69703;SDS011;56967;43.538;-5.646;2022-07-05T09:50:35;8.25;;;2.08;;
69703;SDS011;56967;43.538;-5.646;2022-07-05T09:53:01;6.97;;;1.50;;
69703;SDS011;56967;43.538;-5.646;2022-07-05T09:55:27;9.63;;;1.98;;
69703;SDS011;56967;43.538;-5.646;2022-07-05T09:57:52;8.75;;;2.03;;
69703;SDS011;56967;43.538;-5.646;2022-07-05T10:00:19;6.22;;;1.52;;
69703;SDS011;56967;43.538;-5.646;2022-07-05T10:02:46;6.43;;;1.75;;
69703;SDS011;56967;43.538;-5.646;2022-07-05T10:05:16;5.53;;;1.40;;
69703;SDS011;56967;43.538;-5.646;2022-07-05T10:07:46;6.40;;;1.70;;
69703;SDS011;56967;43.538;-5.646;2022-07-05T10:10:12;3.78;;;1.23;;
69703;SDS011;56967;43.538;-5.646;2022-07-05T10:12:38;9.48;;;1.60;;
69703;SDS011;56967;43.538;-5.646;2022-07-05T10:15:05;3.45;;;1.35;;
69703;SDS011;56967;43.538;-5.646;2022-07-05T10:17:30;6.53;;;1.70;;
69703;SDS011;56967;43.538;-5.646;2022-07-05T10:19:59;8.30;;;2.40;;
69703;SDS011;56967;43.538;-5.646;2022-07-05T10:22:25;5.40;;;1.90;;
69703;SDS011;56967;43.538;-5.646;2022-07-05T10:24:52;8.43;;;2.03;;
69703;SDS011;56967;43.538;-5.646;2022-07-05T10:27:19;6.35;;;2.00;;
69703;SDS011;56967;43.538;-5.646;2022-07-05T10:29:44;8.05;;;2.10;;
69703;SDS011;56967;43.538;-5.646;2022-07-05T10:32:10;8.27;;;1.80;;
69703;SDS011;56967;43.538;-5.646;2022-07-05T10:34:36;8.35;;;2.03;;
69703;SDS011;56967;43.538;-5.646;2022-07-05T10:37:02;9.00;;;2.00;;
69703;SDS011;56967;43.538;-5.646;2022-07-05T10:39:28;8.07;;;2.05;;
69703;SDS011;56967;43.538;-5.646;2022-07-05T10:41:54;8.45;;;1.90;;
69703;SDS011;56967;43.538;-5.646;2022-07-05T10:44:33;6.85;;;1.98;;
69703;SDS011;56967;43.538;-5.646;2022-07-05T10:47:08;9.77;;;2.20;;
69703;SDS011;56967;43.538;-5.646;2022-07-05T10:49:37;6.03;;;1.60;;
69703;SDS011;56967;43.538;-5.646;2022-07-05T10:52:03;9.45;;;2.35;;
69703;SDS011;56967;43.538;-5.646;2022-07-05T10:54:29;4.95;;;1.70;;
69703;SDS011;56967;43.538;-5.646;2022-07-05T11:02:22;7.28;;;2.45;;
69703;SDS011;56967;43.538;-5.646;2022-07-05T11:04:47;8.33;;;2.17;;
69703;SDS011;56967;43.538;-5.646;2022-07-05T11:07:12;11.65;;;1.88;;
69703;SDS011;56967;43.538;-5.646;2022-07-05T11:09:38;9.77;;;1.60;;
69703;SDS011;56967;43.538;-5.646;2022-07-05T11:12:23;8.32;;;1.73;;
69703;SDS011;56967;43.538;-5.646;2022-07-05T11:15:09;5.68;;;1.40;;
69703;SDS011;56967;43.538;-5.646;2022-07-05T11:17:36;11.88;;;1.63;;
69703;SDS011;56967;43.538;-5.646;2022-07-05T11:22:27;9.20;;;1.50;;
69703;SDS011;56967;43.538;-5.646;2022-07-05T11:24:53;9.98;;;1.55;;
69703;SDS011;56967;43.538;-5.646;2022-07-05T11:27:20;8.80;;;1.50;;
69703;SDS011;56967;43.538;-5.646;2022-07-05T11:29:49;7.35;;;1.50;;
69703;SDS011;56967;43.538;-5.646;2022-07-05T11:32:15;5.65;;;1.50;;
69703;SDS011;56967;43.538;-5.646;2022-07-05T11:34:41;8.95;;;1.80;;
69703;SDS011;56967;43.538;-5.646;2022-07-05T11:37:23;6.97;;;1.48;;
69703;SDS011;56967;43.538;-5.646;2022-07-05T11:42:49;6.15;;;1.55;;
69703;SDS011;56967;43.538;-5.646;2022-07-05T11:45:14;7.03;;;1.98;;
69703;SDS011;56967;43.538;-5.646;2022-07-05T11:47:40;7.43;;;1.35;;
69703;SDS011;56967;43.538;-5.646;2022-07-05T11:50:06;5.15;;;1.27;;
69703;SDS011;56967;43.538;-5.646;2022-07-05T11:52:35;4.68;;;1.30;;
69703;SDS011;56967;43.538;-5.646;2022-07-05T11:55:01;6.72;;;1.40;;
69703;SDS011;56967;43.538;-5.646;2022-07-05T11:57:26;7.90;;;1.77;;
69703;SDS011;56967;43.538;-5.646;2022-07-05T11:59:52;7.63;;;1.30;;
69703;SDS011;56967;43.538;-5.646;2022-07-05T12:02:17;9.40;;;1.58;;
69703;SDS011;56967;43.538;-5.646;2022-07-05T12:04:49;8.57;;;1.42;;
69703;SDS011;56967;43.538;-5.646;2022-07-05T12:07:27;8.60;;;1.48;;
69703;SDS011;56967;43.538;-5.646;2022-07-05T12:09:52;7.32;;;1.40;;
69703;SDS011;56967;43.538;-5.646;2022-07-05T12:12:36;9.35;;;1.58;;
69703;SDS011;56967;43.538;-5.646;2022-07-05T12:15:08;7.90;;;1.20;;
69703;SDS011;56967;43.538;-5.646;2022-07-05T12:17:34;6.57;;;1.40;;
69703;SDS011;56967;43.538;-5.646;2022-07-05T12:19:59;8.27;;;1.45;;
69703;SDS011;56967;43.538;-5.646;2022-07-05T12:22:35;10.35;;;1.50;;
69703;SDS011;56967;43.538;-5.646;2022-07-05T12:29:51;8.53;;;1.50;;
69703;SDS011;56967;43.538;-5.646;2022-07-05T12:32:16;7.78;;;1.85;;
69703;SDS011;56967;43.538;-5.646;2022-07-05T12:34:42;6.00;;;1.48;;
69703;SDS011;56967;43.538;-5.646;2022-07-05T12:37:07;10.57;;;1.63;;
69703;SDS011;56967;43.538;-5.646;2022-07-05T12:39:33;8.82;;;1.60;;
69703;SDS011;56967;43.538;-5.646;2022-07-05T12:41:59;4.18;;;0.95;;
69703;SDS011;56967;43.538;-5.646;2022-07-05T12:44:24;5.72;;;1.50;;
69703;SDS011;56967;43.538;-5.646;2022-07-05T12:46:50;7.05;;;1.30;;
69703;SDS011;56967;43.538;-5.646;2022-07-05T12:49:15;6.15;;;1.48;;
69703;SDS011;56967;43.538;-5.646;2022-07-05T12:51:41;9.82;;;1.80;;
69703;SDS011;56967;43.538;-5.646;2022-07-05T12:54:07;7.32;;;1.30;;
69703;SDS011;56967;43.538;-5.646;2022-07-05T12:56:52;7.65;;;1.60;;
69703;SDS011;56967;43.538;-5.646;2022-07-05T12:59:36;8.30;;;1.63;;
69703;SDS011;56967;43.538;-5.646;2022-07-05T13:02:02;7.68;;;1.50;;
69703;SDS011;56967;43.538;-5.646;2022-07-05T13:04:28;9.55;;;1.67;;
69703;SDS011;56967;43.538;-5.646;2022-07-05T13:06:55;8.90;;;1.60;;
69703;SDS011;56967;43.538;-5.646;2022-07-05T13:09:30;15.18;;;2.08;;
69703;SDS011;56967;43.538;-5.646;2022-07-05T13:14:34;8.63;;;1.40;;
69703;SDS011;56967;43.538;-5.646;2022-07-05T13:17:00;9.32;;;1.88;;
69703;SDS011;56967;43.538;-5.646;2022-07-05T13:19:25;12.13;;;1.92;;
69703;SDS011;56967;43.538;-5.646;2022-07-05T13:21:50;11.25;;;1.67;;
69703;SDS011;56967;43.538;-5.646;2022-07-05T13:24:16;7.35;;;1.30;;
69703;SDS011;56967;43.538;-5.646;2022-07-05T13:26:41;7.45;;;1.52;;
69703;SDS011;56967;43.538;-5.646;2022-07-05T13:29:06;4.80;;;1.50;;
69703;SDS011;56967;43.538;-5.646;2022-07-05T13:31:32;7.30;;;1.60;;
69703;SDS011;56967;43.538;-5.646;2022-07-05T13:33:58;9.13;;;1.60;;
69703;SDS011;56967;43.538;-5.646;2022-07-05T13:36:24;8.93;;;1.95;;
69703;SDS011;56967;43.538;-5.646;2022-07-05T13:38:49;8.23;;;1.85;;
69703;SDS011;56967;43.538;-5.646;2022-07-05T13:41:15;8.55;;;1.83;;
69703;SDS011;56967;43.538;-5.646;2022-07-05T13:43:40;7.55;;;1.92;;
69703;SDS011;56967;43.538;-5.646;2022-07-05T13:46:06;10.50;;;1.57;;
69703;SDS011;56967;43.538;-5.646;2022-07-05T13:48:31;7.35;;;1.38;;
69703;SDS011;56967;43.538;-5.646;2022-07-05T13:50:57;7.90;;;1.65;;
69703;SDS011;56967;43.538;-5.646;2022-07-05T13:53:22;7.25;;;1.52;;
69703;SDS011;56967;43.538;-5.646;2022-07-05T13:55:47;14.55;;;1.77;;
69703;SDS011;56967;43.538;-5.646;2022-07-05T13:58:13;8.35;;;1.60;;
69703;SDS011;56967;43.538;-5.646;2022-07-05T14:00:38;7.30;;;1.50;;
69703;SDS011;56967;43.538;-5.646;2022-07-05T14:03:03;8.48;;;1.88;;
69703;SDS011;56967;43.538;-5.646;2022-07-05T14:05:29;9.07;;;1.58;;
69703;SDS011;56967;43.538;-5.646;2022-07-05T14:07:54;10.43;;;1.50;;
69703;SDS011;56967;43.538;-5.646;2022-07-05T14:10:19;10.40;;;1.55;;
69703;SDS011;56967;43.538;-5.646;2022-07-05T14:12:45;7.25;;;1.33;;
69703;SDS011;56967;43.538;-5.646;2022-07-05T14:15:10;6.35;;;1.38;;
69703;SDS011;56967;43.538;-5.646;2022-07-05T14:17:36;12.25;;;1.80;;
69703;SDS011;56967;43.538;-5.646;2022-07-05T14:20:01;12.07;;;1.88;;
69703;SDS011;56967;43.538;-5.646;2022-07-05T14:22:27;10.07;;;1.80;;
69703;SDS011;56967;43.538;-5.646;2022-07-05T14:24:52;14.68;;;2.17;;
69703;SDS011;56967;43.538;-5.646;2022-07-05T14:27:17;10.07;;;2.10;;
69703;SDS011;56967;43.538;-5.646;2022-07-05T14:29:43;15.77;;;2.17;;
69703;SDS011;56967;43.538;-5.646;2022-07-05T14:32:08;10.77;;;2.15;;
69703;SDS011;56967;43.538;-5.646;2022-07-05T14:34:33;14.02;;;2.30;;
69703;SDS011;56967;43.538;-5.646;2022-07-05T14:36:59;11.02;;;2.35;;
69703;SDS011;56967;43.538;-5.646;2022-07-05T14:39:27;10.45;;;2.13;;
69703;SDS011;56967;43.538;-5.646;2022-07-05T14:41:53;12.47;;;2.37;;
69703;SDS011;56967;43.538;-5.646;2022-07-05T14:44:19;14.20;;;2.47;;
69703;SDS011;56967;43.538;-5.646;2022-07-05T14:46:45;13.00;;;2.00;;
69703;SDS011;56967;43.538;-5.646;2022-07-05T14:49:10;16.73;;;2.25;;
69703;SDS011;56967;43.538;-5.646;2022-07-05T14:51:35;13.52;;;2.47;;
69703;SDS011;56967;43.538;-5.646;2022-07-05T14:54:01;13.82;;;2.10;;